createdAt,value
2023-05-19T00:01:21.832Z,5.65
2023-05-19T00:04:30.864Z,4.85
2023-05-19T00:07:38.905Z,5.40
2023-05-19T00:10:41.726Z,5.28
2023-05-19T00:13:49.744Z,3.92
2023-05-19T00:16:56.025Z,4.57
2023-05-19T00:20:01.558Z,4.88
2023-05-19T00:23:03.868Z,4.85
2023-05-19T00:26:06.677Z,4.38
2023-05-19T00:29:08.956Z,3.40
2023-05-19T00:32:11.580Z,6.18
2023-05-19T00:35:14.133Z,4.85
2023-05-19T00:38:19.497Z,3.47
2023-05-19T00:41:22.765Z,5.93
2023-05-19T00:44:25.298Z,4.35
2023-05-19T00:47:30.165Z,6.45
2023-05-19T00:50:35.473Z,4.15
2023-05-19T00:53:43.946Z,4.65
2023-05-19T00:56:46.368Z,5.97
2023-05-19T00:59:51.357Z,5.60
2023-05-19T01:02:57.144Z,5.97
2023-05-19T01:06:07.372Z,6.10
2023-05-19T01:09:12.345Z,6.95
2023-05-19T01:12:18.459Z,5.40
2023-05-19T01:15:21.024Z,5.35
2023-05-19T01:18:56.228Z,6.15
2023-05-19T01:22:14.922Z,6.53
2023-05-19T01:25:48.256Z,6.32
2023-05-19T01:29:28.088Z,6.03
2023-05-19T01:32:34.791Z,5.40
2023-05-19T01:35:45.882Z,7.68
2023-05-19T01:38:54.002Z,6.00
2023-05-19T01:41:58.205Z,5.78
2023-05-19T01:45:06.139Z,5.68
2023-05-19T01:48:12.082Z,9.57
2023-05-19T01:51:16.548Z,7.55
2023-05-19T01:54:19.034Z,5.75
2023-05-19T01:57:55.685Z,4.97
2023-05-19T02:01:16.993Z,6.07
2023-05-19T02:04:20.358Z,8.18
2023-05-19T02:07:35.657Z,6.57
2023-05-19T02:10:50.485Z,4.88
2023-05-19T02:13:58.161Z,7.65
2023-05-19T02:17:05.025Z,6.88
2023-05-19T02:20:12.295Z,6.32
2023-05-19T02:23:17.575Z,5.05
2023-05-19T02:26:19.876Z,6.90
2023-05-19T02:29:22.187Z,6.10
2023-05-19T02:32:28.218Z,5.22
2023-05-19T02:35:33.762Z,5.45
2023-05-19T02:38:36.365Z,7.82
2023-05-19T02:41:41.212Z,5.82
2023-05-19T02:44:48.660Z,6.07
2023-05-19T02:47:51.056Z,7.95
2023-05-19T02:50:59.399Z,8.27
2023-05-19T02:54:04.661Z,6.68
2023-05-19T02:57:07.142Z,9.55
2023-05-19T03:00:11.705Z,6.55
2023-05-19T03:03:14.989Z,10.43
2023-05-19T03:06:18.735Z,5.85
2023-05-19T03:09:23.438Z,7.15
2023-05-19T03:12:26.105Z,5.88
2023-05-19T03:15:34.368Z,4.97
2023-05-19T03:18:37.265Z,7.28
2023-05-19T03:21:39.578Z,5.70
2023-05-19T03:24:44.703Z,8.10
2023-05-19T03:27:51.816Z,8.32
2023-05-19T03:30:56.638Z,5.85
2023-05-19T03:34:03.545Z,8.10
2023-05-19T03:37:08.131Z,6.72
2023-05-19T03:40:15.567Z,8.52
2023-05-19T03:43:19.619Z,7.53
2023-05-19T03:46:30.534Z,5.30
2023-05-19T03:49:51.010Z,5.85
2023-05-19T03:53:16.520Z,8.10
2023-05-19T03:56:25.122Z,8.63
2023-05-19T03:59:29.788Z,7.45
2023-05-19T04:02:34.702Z,7.70
2023-05-19T04:05:37.064Z,7.68
2023-05-19T04:08:40.019Z,7.07
2023-05-19T04:11:43.116Z,8.25
2023-05-19T04:14:48.407Z,9.45
2023-05-19T04:17:50.779Z,8.65
2023-05-19T04:20:54.029Z,9.20
2023-05-19T04:23:56.430Z,6.07
2023-05-19T04:27:02.557Z,7.30
2023-05-19T04:30:06.932Z,7.03
2023-05-19T04:33:12.001Z,8.52
2023-05-19T04:36:14.562Z,5.80
2023-05-19T04:39:19.131Z,7.18
2023-05-19T04:42:21.873Z,6.78
2023-05-19T04:45:26.133Z,6.35
2023-05-19T04:48:31.416Z,7.55
2023-05-19T04:51:33.868Z,8.77
2023-05-19T04:54:38.654Z,9.02
2023-05-19T04:57:41.798Z,7.40
2023-05-19T05:03:49.420Z,5.65
2023-05-19T05:06:54.411Z,7.65
2023-05-19T05:10:00.884Z,6.45
2023-05-19T05:13:06.317Z,6.55
2023-05-19T05:16:09.488Z,7.97
2023-05-19T05:19:14.599Z,6.00
2023-05-19T05:22:17.614Z,6.85
2023-05-19T05:25:20.656Z,9.77
2023-05-19T05:28:26.733Z,7.22
2023-05-19T05:31:34.762Z,10.32
2023-05-19T05:34:42.032Z,8.45
2023-05-19T05:37:49.461Z,10.18
2023-05-19T05:40:56.703Z,7.35
2023-05-19T05:43:59.229Z,7.57
2023-05-19T05:47:03.947Z,9.52
2023-05-19T05:50:10.069Z,8.95
2023-05-19T05:53:21.481Z,12.48
2023-05-19T05:56:30.795Z,7.90
2023-05-19T05:59:34.375Z,8.63
2023-05-19T06:02:39.054Z,9.45
2023-05-19T06:05:41.413Z,7.80
2023-05-19T06:08:44.841Z,8.60
2023-05-19T06:11:52.170Z,9.45
2023-05-19T06:14:54.720Z,8.57
2023-05-19T06:18:20.022Z,9.43
2023-05-19T06:21:26.060Z,8.52
2023-05-19T06:24:33.881Z,7.60
2023-05-19T06:27:36.304Z,12.65
2023-05-19T06:30:41.477Z,9.70
2023-05-19T06:34:04.692Z,9.90
2023-05-19T06:37:07.151Z,11.55
2023-05-19T06:40:11.371Z,8.70
2023-05-19T06:43:20.512Z,10.07
2023-05-19T06:46:33.560Z,9.20
2023-05-19T06:49:36.121Z,11.05
2023-05-19T06:52:38.477Z,14.88
2023-05-19T06:55:54.405Z,10.80
2023-05-19T06:59:02.058Z,10.65
2023-05-19T07:02:13.111Z,11.20
2023-05-19T07:05:15.643Z,11.55
2023-05-19T07:08:21.909Z,10.55
2023-05-19T07:11:24.729Z,10.60
2023-05-19T07:14:27.376Z,11.32
2023-05-19T07:17:29.877Z,12.55
2023-05-19T07:20:34.782Z,9.82
2023-05-19T07:23:39.465Z,10.38
2023-05-19T07:26:44.268Z,10.00
2023-05-19T07:29:46.664Z,8.70
2023-05-19T07:32:49.102Z,11.05
2023-05-19T07:35:51.392Z,8.55
2023-05-19T07:38:53.797Z,8.30
2023-05-19T07:41:56.169Z,8.38
2023-05-19T07:45:01.226Z,6.13
2023-05-19T07:48:04.168Z,7.82
2023-05-19T07:51:10.077Z,7.90
2023-05-19T07:54:12.415Z,7.40
2023-05-19T07:57:14.725Z,9.80
2023-05-19T08:00:21.943Z,9.57
2023-05-19T08:06:30.115Z,7.85
2023-05-19T08:09:35.544Z,8.23
2023-05-19T08:12:37.863Z,7.75
2023-05-19T08:15:42.864Z,7.50
2023-05-19T08:21:48.398Z,7.28
2023-05-19T08:24:51.823Z,8.25
2023-05-19T08:27:56.374Z,6.22
2023-05-19T08:30:58.757Z,6.28
2023-05-19T08:34:01.040Z,6.95
2023-05-19T08:37:03.644Z,6.85
2023-05-19T08:40:07.236Z,6.93
2023-05-19T08:43:12.921Z,7.75
2023-05-19T08:46:16.995Z,6.07
2023-05-19T08:49:28.498Z,4.75
2023-05-19T08:52:53.136Z,5.57
2023-05-19T08:56:04.714Z,4.28
2023-05-19T08:59:10.590Z,5.15
2023-05-19T09:02:16.508Z,4.90
2023-05-19T09:05:19.636Z,6.00
2023-05-19T09:08:22.674Z,8.05
2023-05-19T09:11:29.527Z,4.82
2023-05-19T09:14:34.808Z,5.85
2023-05-19T09:17:37.257Z,6.43
2023-05-19T09:20:41.506Z,5.78
2023-05-19T09:23:49.778Z,5.50
2023-05-19T09:26:58.010Z,4.72
2023-05-19T09:30:10.987Z,5.70
2023-05-19T09:36:21.881Z,4.55
2023-05-19T09:39:29.009Z,5.95
2023-05-19T09:42:37.786Z,5.25
2023-05-19T09:45:40.081Z,4.97
2023-05-19T09:48:44.822Z,6.22
2023-05-19T09:51:52.901Z,5.50
2023-05-19T09:54:57.744Z,4.72
2023-05-19T09:58:01.226Z,4.82
2023-05-19T10:01:07.676Z,4.60
2023-05-19T10:04:10.306Z,5.28
2023-05-19T10:07:14.718Z,7.57
2023-05-19T10:10:20.030Z,4.38
2023-05-19T10:13:29.734Z,6.47
2023-05-19T10:16:32.753Z,4.70
2023-05-19T10:19:36.512Z,5.32
2023-05-19T10:22:39.646Z,7.32
2023-05-19T10:25:45.358Z,5.60
2023-05-19T10:28:50.961Z,4.55
2023-05-19T10:31:55.283Z,5.95
2023-05-19T10:35:07.514Z,5.30
2023-05-19T10:38:15.860Z,5.13
2023-05-19T10:41:40.042Z,4.70
2023-05-19T10:44:45.085Z,3.92
2023-05-19T10:47:47.453Z,4.93
2023-05-19T10:50:56.547Z,4.28
2023-05-19T10:54:02.822Z,4.60
2023-05-19T10:57:14.219Z,3.90
2023-05-19T11:00:31.823Z,3.92
2023-05-19T11:03:53.848Z,8.73
2023-05-19T11:06:57.824Z,4.22
2023-05-19T11:10:06.085Z,4.22
2023-05-19T11:13:23.113Z,4.20
2023-05-19T11:16:29.534Z,5.07
2023-05-19T11:19:37.137Z,4.97
2023-05-19T11:22:40.124Z,3.58
2023-05-19T11:25:44.738Z,10.40
2023-05-19T11:28:48.195Z,4.93
2023-05-19T11:31:53.111Z,5.13
2023-05-19T11:35:00.834Z,4.18
2023-05-19T11:38:07.235Z,4.50
2023-05-19T11:41:09.604Z,4.32
2023-05-19T11:44:12.200Z,4.35
2023-05-19T11:47:15.928Z,5.10
2023-05-19T11:50:22.997Z,5.25
2023-05-19T11:53:25.419Z,4.93
2023-05-19T11:56:30.008Z,4.07
2023-05-19T11:59:39.128Z,4.50
2023-05-19T12:02:44.084Z,3.75
2023-05-19T12:05:52.807Z,3.50
2023-05-19T12:08:55.530Z,3.83
2023-05-19T12:12:01.076Z,5.95
2023-05-19T12:15:04.111Z,4.10
2023-05-19T12:18:07.373Z,4.68
2023-05-19T12:21:12.180Z,4.05
2023-05-19T12:24:17.635Z,3.58
2023-05-19T12:27:20.842Z,6.53
2023-05-19T12:30:34.234Z,4.85
2023-05-19T12:33:39.586Z,5.05
2023-05-19T12:36:44.508Z,4.47
2023-05-19T12:39:50.790Z,5.70
2023-05-19T12:42:59.245Z,5.22
2023-05-19T12:46:13.550Z,5.60
2023-05-19T12:49:18.276Z,3.80
2023-05-19T12:52:24.094Z,7.18
2023-05-19T12:55:26.541Z,4.47
2023-05-19T12:58:28.898Z,5.85
2023-05-19T13:01:31.750Z,3.20
2023-05-19T13:04:36.650Z,4.40
2023-05-19T13:07:38.938Z,4.13
2023-05-19T13:10:44.634Z,5.43
2023-05-19T13:13:51.875Z,3.45
2023-05-19T13:16:54.267Z,4.45
2023-05-19T13:19:59.135Z,3.80
2023-05-19T13:23:06.677Z,3.88
2023-05-19T13:26:13.680Z,3.40
2023-05-19T13:29:16.030Z,5.40
2023-05-19T13:32:20.600Z,3.10
2023-05-19T13:35:23.051Z,3.88
2023-05-19T13:38:25.393Z,4.80
2023-05-19T13:41:30.203Z,3.35
2023-05-19T13:44:32.890Z,4.30
2023-05-19T13:47:38.804Z,4.47
2023-05-19T13:50:41.100Z,4.05
2023-05-19T13:53:43.496Z,3.58
2023-05-19T13:56:48.850Z,4.80
2023-05-19T14:00:02.018Z,4.07
2023-05-19T14:03:16.326Z,3.78
2023-05-19T14:06:20.995Z,4.82
2023-05-19T14:09:26.955Z,4.30
2023-05-19T14:12:41.384Z,4.03
2023-05-19T14:15:49.752Z,3.55
2023-05-19T14:18:52.268Z,3.97
2023-05-19T14:21:56.803Z,3.83
2023-05-19T14:25:00.493Z,3.08
2023-05-19T14:28:05.148Z,4.30
2023-05-19T14:31:14.821Z,4.20
2023-05-19T14:34:21.206Z,3.47
2023-05-19T14:37:28.961Z,3.90
2023-05-19T14:40:31.644Z,4.55
2023-05-19T14:43:34.104Z,4.93
2023-05-19T14:46:38.903Z,3.83
2023-05-19T14:49:41.244Z,3.63
2023-05-19T14:52:46.022Z,4.30
2023-05-19T14:55:49.579Z,3.00
2023-05-19T14:58:55.664Z,3.65
2023-05-19T15:02:02.750Z,3.95
2023-05-19T15:05:08.093Z,4.43
2023-05-19T15:08:10.463Z,3.47
2023-05-19T15:11:12.891Z,3.22
2023-05-19T15:14:18.686Z,3.45
2023-05-19T15:17:23.378Z,4.13
2023-05-19T15:20:27.448Z,2.67
2023-05-19T15:23:36.437Z,3.40
2023-05-19T15:26:41.149Z,4.07
2023-05-19T15:29:43.690Z,3.83
2023-05-19T15:32:46.003Z,3.45
2023-05-19T15:35:51.694Z,3.75
2023-05-19T15:38:54.094Z,4.63
2023-05-19T15:41:56.440Z,4.55
2023-05-19T15:45:05.391Z,3.80
2023-05-19T15:48:08.189Z,3.92
2023-05-19T15:51:13.056Z,4.47
2023-05-19T15:54:15.465Z,4.32
2023-05-19T15:57:20.926Z,4.18
2023-05-19T16:00:25.475Z,4.95
2023-05-19T16:03:27.877Z,4.85
2023-05-19T16:06:34.951Z,3.90
2023-05-19T16:09:37.286Z,3.47
2023-05-19T16:12:43.971Z,3.75
2023-05-19T16:15:46.297Z,5.28
2023-05-19T16:18:48.684Z,4.35
2023-05-19T16:21:53.391Z,4.57
2023-05-19T16:24:55.788Z,5.05
2023-05-19T16:27:58.155Z,4.90
2023-05-19T16:31:02.914Z,3.72
2023-05-19T16:34:05.215Z,5.55
2023-05-19T16:37:09.943Z,3.20
2023-05-19T16:40:15.082Z,4.72
2023-05-19T16:43:19.691Z,3.15
2023-05-19T16:46:24.650Z,3.85
2023-05-19T16:49:27.016Z,5.00
2023-05-19T16:52:29.355Z,5.55
2023-05-19T16:55:32.759Z,4.60
2023-05-19T16:58:35.507Z,3.53
2023-05-19T17:01:40.130Z,4.25
2023-05-19T17:04:44.959Z,3.78
2023-05-19T17:07:49.724Z,4.32
2023-05-19T17:10:52.037Z,4.60
2023-05-19T17:13:54.417Z,3.70
2023-05-19T17:16:59.279Z,3.67
2023-05-19T17:20:02.113Z,4.03
2023-05-19T17:23:06.995Z,3.35
2023-05-19T17:26:14.452Z,4.53
2023-05-19T17:32:25.881Z,4.03
2023-05-19T17:35:28.665Z,3.58
2023-05-19T17:38:40.115Z,4.25
2023-05-19T17:41:45.225Z,6.47
2023-05-19T17:44:49.704Z,7.47
2023-05-19T17:47:54.188Z,4.03
2023-05-19T17:50:56.899Z,4.75
2023-05-19T17:53:59.829Z,3.35
2023-05-19T17:57:12.950Z,4.07
2023-05-19T18:00:17.663Z,4.90
2023-05-19T18:03:23.595Z,5.65
2023-05-19T18:06:28.172Z,5.50
2023-05-19T18:09:36.186Z,4.13
2023-05-19T18:12:38.821Z,3.63
2023-05-19T18:15:43.457Z,4.30
2023-05-19T18:18:50.645Z,2.83
2023-05-19T18:21:53.237Z,3.83
2023-05-19T18:24:58.106Z,4.25
2023-05-19T18:28:05.762Z,5.90
2023-05-19T18:31:17.575Z,3.85
2023-05-19T18:34:25.577Z,5.30
2023-05-19T18:37:28.634Z,5.68
2023-05-19T18:40:33.444Z,6.75
2023-05-19T18:43:36.150Z,7.18
2023-05-19T18:46:38.403Z,5.35
2023-05-19T18:49:43.211Z,6.20
2023-05-19T18:52:50.376Z,4.97
2023-05-19T18:55:53.363Z,8.93
2023-05-19T18:58:55.674Z,6.05
2023-05-19T19:02:00.744Z,6.38
2023-05-19T19:05:04.092Z,8.98
2023-05-19T19:08:11.469Z,8.23
2023-05-19T19:11:16.243Z,6.90
2023-05-19T19:14:19.410Z,7.63
2023-05-19T19:17:21.815Z,6.35
2023-05-19T19:20:24.267Z,6.80
2023-05-19T19:23:27.544Z,10.23
2023-05-19T19:26:34.634Z,8.50
2023-05-19T19:29:41.470Z,7.90
2023-05-19T19:32:43.902Z,7.75
2023-05-19T19:35:49.122Z,9.75
2023-05-19T19:38:51.883Z,8.80
2023-05-19T19:41:57.275Z,8.05
2023-05-19T19:45:02.227Z,7.05
2023-05-19T19:48:09.469Z,9.27
2023-05-19T19:51:16.790Z,8.15
2023-05-19T19:54:19.092Z,8.70
2023-05-19T19:57:21.455Z,7.45
2023-05-19T20:00:26.197Z,8.15
2023-05-19T20:03:29.768Z,9.20
2023-05-19T20:06:33.280Z,10.65
2023-05-19T20:09:35.623Z,8.80
2023-05-19T20:12:38.282Z,7.57
2023-05-19T20:15:43.905Z,7.15
2023-05-19T20:18:48.480Z,10.00
2023-05-19T20:21:53.673Z,12.18
2023-05-19T20:24:55.922Z,6.40
2023-05-19T20:28:02.080Z,8.40
2023-05-19T20:31:05.191Z,6.15
2023-05-19T20:34:07.494Z,8.27
2023-05-19T20:37:13.808Z,10.40
2023-05-19T20:40:18.719Z,6.82
2023-05-19T20:43:21.315Z,6.95
2023-05-19T20:46:28.613Z,6.68
2023-05-19T20:49:31.224Z,11.27
2023-05-19T20:52:36.037Z,10.07
2023-05-19T20:55:42.254Z,8.40
2023-05-19T20:58:44.506Z,9.20
2023-05-19T21:01:47.453Z,10.18
2023-05-19T21:04:52.403Z,9.05
2023-05-19T21:07:54.784Z,9.20
2023-05-19T21:10:59.446Z,6.78
2023-05-19T21:14:04.291Z,6.68
2023-05-19T21:17:07.446Z,8.27
2023-05-19T21:20:13.381Z,7.75
2023-05-19T21:23:15.771Z,9.20
2023-05-19T21:26:18.175Z,7.28
2023-05-19T21:29:23.080Z,7.18
2023-05-19T21:35:30.560Z,7.32
2023-05-19T21:38:33.013Z,9.10
2023-05-19T21:41:35.569Z,9.18
2023-05-19T21:44:40.179Z,10.30
2023-05-19T21:47:42.530Z,6.50
2023-05-19T21:50:52.592Z,7.90
2023-05-19T21:53:54.932Z,7.57
2023-05-19T21:56:57.360Z,7.05
2023-05-19T21:59:59.734Z,8.55
2023-05-19T22:03:02.445Z,7.82
2023-05-19T22:06:06.528Z,6.00
2023-05-19T22:09:11.631Z,5.45
2023-05-19T22:12:16.408Z,6.95
2023-05-19T22:15:21.063Z,6.53
2023-05-19T22:18:25.813Z,6.88
2023-05-19T22:21:28.153Z,9.75
2023-05-19T22:24:35.536Z,11.15
2023-05-19T22:27:38.186Z,7.05
2023-05-19T22:30:42.179Z,6.18
2023-05-19T22:33:44.880Z,8.32
2023-05-19T22:36:47.343Z,7.38
2023-05-19T22:39:51.961Z,9.35
2023-05-19T22:42:56.515Z,7.20
2023-05-19T22:45:58.873Z,7.57
2023-05-19T22:49:01.216Z,6.03
2023-05-19T22:52:06.203Z,6.70
2023-05-19T22:55:11.076Z,8.73
2023-05-19T22:58:13.626Z,7.70
2023-05-19T23:01:18.849Z,6.63
2023-05-19T23:04:21.675Z,8.13
2023-05-19T23:07:24.021Z,7.60
2023-05-19T23:10:26.374Z,8.13
2023-05-19T23:13:31.686Z,6.15
2023-05-19T23:16:34.031Z,9.63
2023-05-19T23:19:39.462Z,7.55
2023-05-19T23:22:41.817Z,8.23
2023-05-19T23:25:44.106Z,9.82
2023-05-19T23:28:48.809Z,10.65
2023-05-19T23:31:51.450Z,8.85
2023-05-19T23:34:56.107Z,8.55
2023-05-19T23:38:03.173Z,8.98
2023-05-19T23:41:05.838Z,8.20
2023-05-19T23:44:08.623Z,7.60
2023-05-19T23:47:11.001Z,7.35
2023-05-19T23:50:13.329Z,8.07
2023-05-19T23:53:18.006Z,7.43
2023-05-19T23:56:22.606Z,10.27
2023-05-19T23:59:29.870Z,6.38
